sensor_id;sensor_type;location;lat;lon;timestamp;pressure;altitude;pressure_sealevel;temperature;humidity
8627;BME280;4351;51.422;6.794;2023-05-02T00:02:06;101541.63;;;10.55;100.00
8627;BME280;4351;51.422;6.794;2023-05-02T00:04:35;101546.28;;;10.51;100.00
8627;BME280;4351;51.422;6.794;2023-05-02T00:07:04;101548.09;;;10.89;100.00
8627;BME280;4351;51.422;6.794;2023-05-02T00:09:32;101530.97;;;11.08;100.00
8627;BME280;4351;51.422;6.794;2023-05-02T00:12:01;101505.41;;;11.15;100.00
8627;BME280;4351;51.422;6.794;2023-05-02T00:14:29;101486.88;;;11.25;100.00
8627;BME280;4351;51.422;6.794;2023-05-02T00:16:57;101470.09;;;11.54;100.00
8627;BME280;4351;51.422;6.794;2023-05-02T00:19:25;101421.47;;;11.54;100.00
8627;BME280;4351;51.422;6.794;2023-05-02T00:21:54;101395.66;;;11.48;100.00
8627;BME280;4351;51.422;6.794;2023-05-02T00:24:22;101356.78;;;11.51;100.00
8627;BME280;4351;51.422;6.794;2023-05-02T00:26:50;101316.56;;;11.63;100.00
8627;BME280;4351;51.422;6.794;2023-05-02T00:29:18;101280.44;;;11.64;100.00
8627;BME280;4351;51.422;6.794;2023-05-02T00:31:46;101257.09;;;11.63;100.00
8627;BME280;4351;51.422;6.794;2023-05-02T00:34:14;101228.22;;;11.63;100.00
8627;BME280;4351;51.422;6.794;2023-05-02T00:36:41;101219.94;;;11.50;100.00
8627;BME280;4351;51.422;6.794;2023-05-02T00:39:11;101213.94;;;11.45;100.00
8627;BME280;4351;51.422;6.794;2023-05-02T00:41:38;101210.97;;;11.33;100.00
8627;BME280;4351;51.422;6.794;2023-05-02T00:44:06;101221.53;;;11.38;100.00
8627;BME280;4351;51.422;6.794;2023-05-02T00:46:35;101218.03;;;11.20;100.00
8627;BME280;4351;51.422;6.794;2023-05-02T00:49:03;101219.78;;;11.21;100.00
8627;BME280;4351;51.422;6.794;2023-05-02T00:51:31;101220.56;;;11.23;100.00
8627;BME280;4351;51.422;6.794;2023-05-02T00:53:59;101222.78;;;11.14;100.00
8627;BME280;4351;51.422;6.794;2023-05-02T00:56:29;101228.53;;;11.08;100.00
8627;BME280;4351;51.422;6.794;2023-05-02T00:58:57;101236.22;;;11.16;100.00
8627;BME280;4351;51.422;6.794;2023-05-02T01:01:32;101242.03;;;11.08;100.00
8627;BME280;4351;51.422;6.794;2023-05-02T01:04:13;101255.81;;;11.20;100.00
8627;BME280;4351;51.422;6.794;2023-05-02T01:06:55;101260.34;;;11.03;100.00
8627;BME280;4351;51.422;6.794;2023-05-02T01:09:33;101271.75;;;11.08;100.00
8627;BME280;4351;51.422;6.794;2023-05-02T01:12:17;101280.22;;;11.18;100.00
8627;BME280;4351;51.422;6.794;2023-05-02T01:14:50;101287.09;;;11.24;100.00
8627;BME280;4351;51.422;6.794;2023-05-02T01:17:23;101280.41;;;11.31;100.00
8627;BME280;4351;51.422;6.794;2023-05-02T01:19:57;101270.16;;;11.38;100.00
8627;BME280;4351;51.422;6.794;2023-05-02T01:22:27;101271.53;;;11.45;100.00
8627;BME280;4351;51.422;6.794;2023-05-02T01:25:02;101265.44;;;11.42;100.00
8627;BME280;4351;51.422;6.794;2023-05-02T01:27:39;101271.88;;;11.23;100.00
8627;BME280;4351;51.422;6.794;2023-05-02T01:30:12;101268.19;;;11.24;100.00
8627;BME280;4351;51.422;6.794;2023-05-02T01:32:42;101281.16;;;11.17;100.00
8627;BME280;4351;51.422;6.794;2023-05-02T01:35:14;101276.19;;;11.09;100.00
8627;BME280;4351;51.422;6.794;2023-05-02T01:37:44;101290.72;;;11.07;100.00
8627;BME280;4351;51.422;6.794;2023-05-02T01:40:15;101300.84;;;11.19;100.00
8627;BME280;4351;51.422;6.794;2023-05-02T01:42:46;101310.88;;;11.17;100.00
8627;BME280;4351;51.422;6.794;2023-05-02T01:45:17;101321.22;;;11.43;100.00
8627;BME280;4351;51.422;6.794;2023-05-02T01:47:45;101316.06;;;11.38;100.00
8627;BME280;4351;51.422;6.794;2023-05-02T01:50:16;101315.09;;;11.39;100.00
8627;BME280;4351;51.422;6.794;2023-05-02T01:52:46;101310.13;;;11.31;100.00
8627;BME280;4351;51.422;6.794;2023-05-02T01:55:16;101316.47;;;11.30;100.00
8627;BME280;4351;51.422;6.794;2023-05-02T01:57:46;101316.81;;;11.24;100.00
8627;BME280;4351;51.422;6.794;2023-05-02T02:00:18;101319.50;;;11.24;100.00
8627;BME280;4351;51.422;6.794;2023-05-02T02:02:48;101319.41;;;11.25;100.00
8627;BME280;4351;51.422;6.794;2023-05-02T02:05:18;101316.66;;;11.27;100.00
8627;BME280;4351;51.422;6.794;2023-05-02T02:07:47;101330.97;;;11.29;100.00
8627;BME280;4351;51.422;6.794;2023-05-02T02:10:16;101339.34;;;11.41;100.00
8627;BME280;4351;51.422;6.794;2023-05-02T02:12:51;101341.28;;;11.38;100.00
8627;BME280;4351;51.422;6.794;2023-05-02T02:15:27;101334.59;;;11.28;100.00
8627;BME280;4351;51.422;6.794;2023-05-02T02:17:59;101337.59;;;11.40;100.00
8627;BME280;4351;51.422;6.794;2023-05-02T02:20:28;101336.34;;;11.29;100.00
8627;BME280;4351;51.422;6.794;2023-05-02T02:22:59;101338.03;;;11.48;100.00
8627;BME280;4351;51.422;6.794;2023-05-02T02:25:27;101336.72;;;11.39;100.00
8627;BME280;4351;51.422;6.794;2023-05-02T02:27:56;101343.56;;;11.29;100.00
8627;BME280;4351;51.422;6.794;2023-05-02T02:30:25;101352.72;;;11.60;100.00
8627;BME280;4351;51.422;6.794;2023-05-02T02:32:53;101358.78;;;11.47;100.00
8627;BME280;4351;51.422;6.794;2023-05-02T02:35:21;101347.84;;;11.33;100.00
8627;BME280;4351;51.422;6.794;2023-05-02T02:37:55;101342.44;;;11.33;100.00
8627;BME280;4351;51.422;6.794;2023-05-02T02:40:29;101363.53;;;11.26;100.00
8627;BME280;4351;51.422;6.794;2023-05-02T02:43:04;101359.34;;;11.36;100.00
8627;BME280;4351;51.422;6.794;2023-05-02T02:45:37;101360.00;;;11.42;100.00
8627;BME280;4351;51.422;6.794;2023-05-02T02:48:19;101364.16;;;11.31;100.00
8627;BME280;4351;51.422;6.794;2023-05-02T02:50:58;101357.38;;;11.40;100.00
8627;BME280;4351;51.422;6.794;2023-05-02T02:53:33;101367.25;;;11.57;100.00
8627;BME280;4351;51.422;6.794;2023-05-02T02:56:14;101361.16;;;11.54;100.00
8627;BME280;4351;51.422;6.794;2023-05-02T02:58:47;101361.44;;;11.31;100.00
8627;BME280;4351;51.422;6.794;2023-05-02T03:01:23;101372.41;;;11.28;100.00
8627;BME280;4351;51.422;6.794;2023-05-02T03:03:54;101378.84;;;11.25;100.00
8627;BME280;4351;51.422;6.794;2023-05-02T03:06:24;101382.09;;;11.32;100.00
8627;BME280;4351;51.422;6.794;2023-05-02T03:08:54;101376.31;;;11.22;100.00
8627;BME280;4351;51.422;6.794;2023-05-02T03:11:27;101388.00;;;11.23;100.00
8627;BME280;4351;51.422;6.794;2023-05-02T03:13:56;101392.75;;;11.35;100.00
8627;BME280;4351;51.422;6.794;2023-05-02T03:16:33;101393.41;;;11.23;100.00
8627;BME280;4351;51.422;6.794;2023-05-02T03:19:05;101390.53;;;11.26;100.00
8627;BME280;4351;51.422;6.794;2023-05-02T03:21:34;101403.91;;;11.11;100.00
8627;BME280;4351;51.422;6.794;2023-05-02T03:24:12;101412.47;;;11.20;100.00
8627;BME280;4351;51.422;6.794;2023-05-02T03:26:43;101414.94;;;11.24;100.00
8627;BME280;4351;51.422;6.794;2023-05-02T03:29:15;101409.94;;;11.17;100.00
8627;BME280;4351;51.422;6.794;2023-05-02T03:31:44;101421.91;;;11.29;100.00
8627;BME280;4351;51.422;6.794;2023-05-02T03:34:13;101412.78;;;11.31;100.00
8627;BME280;4351;51.422;6.794;2023-05-02T03:36:44;101411.97;;;11.29;100.00
8627;BME280;4351;51.422;6.794;2023-05-02T03:39:12;101412.88;;;11.30;100.00
8627;BME280;4351;51.422;6.794;2023-05-02T03:41:40;101415.28;;;11.34;100.00
8627;BME280;4351;51.422;6.794;2023-05-02T03:44:13;101411.81;;;11.32;100.00
8627;BME280;4351;51.422;6.794;2023-05-02T03:46:41;101412.88;;;11.30;100.00
8627;BME280;4351;51.422;6.794;2023-05-02T03:49:12;101404.25;;;11.39;100.00
8627;BME280;4351;51.422;6.794;2023-05-02T03:51:43;101417.59;;;11.42;100.00
8627;BME280;4351;51.422;6.794;2023-05-02T03:54:12;101420.41;;;11.41;100.00
8627;BME280;4351;51.422;6.794;2023-05-02T03:56:41;101431.22;;;11.41;100.00
8627;BME280;4351;51.422;6.794;2023-05-02T03:59:24;101425.53;;;11.45;100.00
8627;BME280;4351;51.422;6.794;2023-05-02T04:01:53;101422.69;;;11.48;100.00
8627;BME280;4351;51.422;6.794;2023-05-02T04:04:31;101422.69;;;11.48;100.00
8627;BME280;4351;51.422;6.794;2023-05-02T04:06:59;101434.38;;;11.49;100.00
8627;BME280;4351;51.422;6.794;2023-05-02T04:09:28;101440.72;;;11.82;100.00
8627;BME280;4351;51.422;6.794;2023-05-02T04:12:03;101450.66;;;11.81;100.00
8627;BME280;4351;51.422;6.794;2023-05-02T04:14:33;101461.94;;;11.56;100.00
8627;BME280;4351;51.422;6.794;2023-05-02T04:17:01;101452.16;;;11.53;100.00
8627;BME280;4351;51.422;6.794;2023-05-02T04:19:50;101462.75;;;11.74;100.00
8627;BME280;4351;51.422;6.794;2023-05-02T04:22:22;101469.53;;;11.47;100.00
8627;BME280;4351;51.422;6.794;2023-05-02T04:24:55;101457.56;;;11.53;100.00
8627;BME280;4351;51.422;6.794;2023-05-02T04:27:24;101465.25;;;11.43;100.00
8627;BME280;4351;51.422;6.794;2023-05-02T04:29:52;101462.75;;;11.40;100.00
8627;BME280;4351;51.422;6.794;2023-05-02T04:32:22;101463.78;;;11.37;100.00
8627;BME280;4351;51.422;6.794;2023-05-02T04:34:52;101456.69;;;11.53;100.00
8627;BME280;4351;51.422;6.794;2023-05-02T04:37:21;101468.69;;;11.65;100.00
8627;BME280;4351;51.422;6.794;2023-05-02T04:39:49;101474.56;;;11.37;100.00
8627;BME280;4351;51.422;6.794;2023-05-02T04:42:21;101475.22;;;11.25;100.00
8627;BME280;4351;51.422;6.794;2023-05-02T04:45:00;101483.09;;;11.30;100.00
8627;BME280;4351;51.422;6.794;2023-05-02T04:47:28;101501.75;;;11.17;100.00
8627;BME280;4351;51.422;6.794;2023-05-02T04:49:57;101526.66;;;11.04;100.00
8627;BME280;4351;51.422;6.794;2023-05-02T04:52:27;101540.03;;;11.07;100.00
8627;BME280;4351;51.422;6.794;2023-05-02T04:54:55;101558.94;;;11.07;100.00
8627;BME280;4351;51.422;6.794;2023-05-02T04:57:24;101584.84;;;11.29;100.00
8627;BME280;4351;51.422;6.794;2023-05-02T04:59:56;101595.00;;;11.24;100.00
8627;BME280;4351;51.422;6.794;2023-05-02T05:02:25;101612.75;;;11.10;100.00
8627;BME280;4351;51.422;6.794;2023-05-02T05:04:54;101624.16;;;10.98;100.00
8627;BME280;4351;51.422;6.794;2023-05-02T05:07:24;101632.56;;;10.91;100.00
8627;BME280;4351;51.422;6.794;2023-05-02T05:09:53;101644.16;;;10.94;100.00
8627;BME280;4351;51.422;6.794;2023-05-02T05:12:23;101653.94;;;11.15;100.00
8627;BME280;4351;51.422;6.794;2023-05-02T05:14:52;101669.47;;;11.10;100.00
8627;BME280;4351;51.422;6.794;2023-05-02T05:17:22;101672.91;;;11.14;100.00
8627;BME280;4351;51.422;6.794;2023-05-02T05:19:51;101663.94;;;11.13;100.00
8627;BME280;4351;51.422;6.794;2023-05-02T05:22:19;101658.16;;;11.02;100.00
8627;BME280;4351;51.422;6.794;2023-05-02T05:24:52;101653.56;;;11.04;100.00
8627;BME280;4351;51.422;6.794;2023-05-02T05:27:25;101648.09;;;11.25;100.00
8627;BME280;4351;51.422;6.794;2023-05-02T05:29:53;101642.06;;;11.00;100.00
8627;BME280;4351;51.422;6.794;2023-05-02T05:32:21;101644.25;;;10.92;100.00
8627;BME280;4351;51.422;6.794;2023-05-02T05:34:50;101647.59;;;10.78;100.00
8627;BME280;4351;51.422;6.794;2023-05-02T05:37:20;101651.97;;;10.80;100.00
8627;BME280;4351;51.422;6.794;2023-05-02T05:39:48;101669.09;;;10.79;100.00
8627;BME280;4351;51.422;6.794;2023-05-02T05:42:17;101674.16;;;10.87;100.00
8627;BME280;4351;51.422;6.794;2023-05-02T05:44:48;101667.97;;;10.85;100.00
8627;BME280;4351;51.422;6.794;2023-05-02T05:47:20;101662.97;;;10.76;100.00
8627;BME280;4351;51.422;6.794;2023-05-02T05:49:51;101650.88;;;11.04;100.00
8627;BME280;4351;51.422;6.794;2023-05-02T05:52:21;101623.22;;;10.99;100.00
8627;BME280;4351;51.422;6.794;2023-05-02T05:54:52;101625.41;;;10.90;100.00
8627;BME280;4351;51.422;6.794;2023-05-02T05:57:24;101615.41;;;10.92;100.00
8627;BME280;4351;51.422;6.794;2023-05-02T05:59:54;101620.25;;;10.86;100.00
8627;BME280;4351;51.422;6.794;2023-05-02T06:02:23;101618.47;;;10.85;100.00
8627;BME280;4351;51.422;6.794;2023-05-02T06:04:51;101606.78;;;11.03;100.00
8627;BME280;4351;51.422;6.794;2023-05-02T06:07:21;101613.41;;;11.15;100.00
8627;BME280;4351;51.422;6.794;2023-05-02T06:09:49;101644.47;;;10.87;100.00
8627;BME280;4351;51.422;6.794;2023-05-02T06:12:17;101648.09;;;10.86;100.00
8627;BME280;4351;51.422;6.794;2023-05-02T06:14:47;101656.06;;;10.89;100.00
8627;BME280;4351;51.422;6.794;2023-05-02T06:17:16;101653.06;;;10.96;100.00
8627;BME280;4351;51.422;6.794;2023-05-02T06:19:44;101669.13;;;10.99;100.00
8627;BME280;4351;51.422;6.794;2023-05-02T06:22:11;101679.78;;;11.02;100.00
8627;BME280;4351;51.422;6.794;2023-05-02T06:24:39;101704.22;;;10.99;100.00
8627;BME280;4351;51.422;6.794;2023-05-02T06:27:07;101705.88;;;11.01;100.00
8627;BME280;4351;51.422;6.794;2023-05-02T06:29:35;101722.16;;;11.00;100.00
8627;BME280;4351;51.422;6.794;2023-05-02T06:32:05;101736.88;;;10.92;100.00
8627;BME280;4351;51.422;6.794;2023-05-02T06:34:33;101737.72;;;10.95;100.00
8627;BME280;4351;51.422;6.794;2023-05-02T06:37:01;101750.06;;;10.79;100.00
8627;BME280;4351;51.422;6.794;2023-05-02T06:39:29;101756.84;;;10.90;100.00
8627;BME280;4351;51.422;6.794;2023-05-02T06:41:57;101762.84;;;10.97;100.00
8627;BME280;4351;51.422;6.794;2023-05-02T06:44:26;101767.94;;;11.03;100.00
8627;BME280;4351;51.422;6.794;2023-05-02T06:46:54;101764.28;;;11.04;100.00
8627;BME280;4351;51.422;6.794;2023-05-02T06:49:24;101762.63;;;11.40;100.00
8627;BME280;4351;51.422;6.794;2023-05-02T06:51:52;101809.94;;;11.30;100.00
8627;BME280;4351;51.422;6.794;2023-05-02T06:54:20;101835.97;;;11.11;100.00
8627;BME280;4351;51.422;6.794;2023-05-02T06:56:48;101841.28;;;11.34;100.00
8627;BME280;4351;51.422;6.794;2023-05-02T06:59:16;101861.00;;;11.15;100.00
8627;BME280;4351;51.422;6.794;2023-05-02T07:01:43;101861.03;;;11.34;100.00
8627;BME280;4351;51.422;6.794;2023-05-02T07:04:11;101897.28;;;11.09;100.00
8627;BME280;4351;51.422;6.794;2023-05-02T07:06:40;101904.25;;;10.94;100.00
8627;BME280;4351;51.422;6.794;2023-05-02T07:09:08;101912.25;;;10.96;100.00
8627;BME280;4351;51.422;6.794;2023-05-02T07:11:36;101919.66;;;10.90;100.00
8627;BME280;4351;51.422;6.794;2023-05-02T07:14:04;101934.66;;;10.77;100.00
8627;BME280;4351;51.422;6.794;2023-05-02T07:16:32;101938.09;;;11.01;100.00
8627;BME280;4351;51.422;6.794;2023-05-02T07:19:00;101951.94;;;10.94;100.00
8627;BME280;4351;51.422;6.794;2023-05-02T07:21:30;101963.00;;;10.87;100.00
8627;BME280;4351;51.422;6.794;2023-05-02T07:23:59;101980.13;;;10.86;100.00
8627;BME280;4351;51.422;6.794;2023-05-02T07:26:27;101993.47;;;10.68;100.00
8627;BME280;4351;51.422;6.794;2023-05-02T07:28:55;102004.84;;;10.77;100.00
8627;BME280;4351;51.422;6.794;2023-05-02T07:31:23;102012.50;;;10.88;100.00
8627;BME280;4351;51.422;6.794;2023-05-02T07:33:51;102024.66;;;10.76;100.00
8627;BME280;4351;51.422;6.794;2023-05-02T07:36:19;102021.88;;;11.00;100.00
8627;BME280;4351;51.422;6.794;2023-05-02T07:38:46;102037.72;;;10.64;100.00
8627;BME280;4351;51.422;6.794;2023-05-02T07:41:15;102038.31;;;10.73;100.00
8627;BME280;4351;51.422;6.794;2023-05-02T07:43:43;102045.63;;;10.69;100.00
8627;BME280;4351;51.422;6.794;2023-05-02T07:46:11;102056.81;;;10.82;100.00
8627;BME280;4351;51.422;6.794;2023-05-02T07:48:39;102068.00;;;10.73;100.00
8627;BME280;4351;51.422;6.794;2023-05-02T07:51:09;102065.22;;;10.74;100.00
8627;BME280;4351;51.422;6.794;2023-05-02T07:53:37;102074.53;;;10.89;100.00
8627;BME280;4351;51.422;6.794;2023-05-02T07:56:06;102085.94;;;10.96;100.00
8627;BME280;4351;51.422;6.794;2023-05-02T07:58:35;102089.28;;;10.80;100.00
8627;BME280;4351;51.422;6.794;2023-05-02T08:01:04;102094.38;;;10.64;100.00
8627;BME280;4351;51.422;6.794;2023-05-02T08:03:31;102098.84;;;10.65;100.00
8627;BME280;4351;51.422;6.794;2023-05-02T08:06:00;102099.75;;;10.66;100.00
8627;BME280;4351;51.422;6.794;2023-05-02T08:08:29;102100.84;;;10.60;100.00
8627;BME280;4351;51.422;6.794;2023-05-02T08:10:57;102110.63;;;11.09;100.00
8627;BME280;4351;51.422;6.794;2023-05-02T08:13:25;102116.34;;;10.79;100.00
8627;BME280;4351;51.422;6.794;2023-05-02T08:15:55;102127.34;;;10.97;100.00
8627;BME280;4351;51.422;6.794;2023-05-02T08:18:24;102134.41;;;10.77;100.00
8627;BME280;4351;51.422;6.794;2023-05-02T08:20:51;102141.91;;;10.68;100.00
8627;BME280;4351;51.422;6.794;2023-05-02T08:23:19;102149.06;;;10.69;100.00
8627;BME280;4351;51.422;6.794;2023-05-02T08:25:47;102152.09;;;10.84;100.00
8627;BME280;4351;51.422;6.794;2023-05-02T08:28:15;102162.91;;;10.84;100.00
8627;BME280;4351;51.422;6.794;2023-05-02T08:30:44;102176.06;;;10.69;100.00
8627;BME280;4351;51.422;6.794;2023-05-02T08:33:13;102188.44;;;10.51;100.00
8627;BME280;4351;51.422;6.794;2023-05-02T08:35:41;102204.16;;;10.38;100.00
8627;BME280;4351;51.422;6.794;2023-05-02T08:38:09;102210.34;;;10.42;100.00
8627;BME280;4351;51.422;6.794;2023-05-02T08:40:37;102206.47;;;10.49;100.00
8627;BME280;4351;51.422;6.794;2023-05-02T08:43:10;102215.91;;;10.37;100.00
8627;BME280;4351;51.422;6.794;2023-05-02T08:45:39;102216.19;;;10.55;100.00
8627;BME280;4351;51.422;6.794;2023-05-02T08:48:09;102220.81;;;10.51;100.00
8627;BME280;4351;51.422;6.794;2023-05-02T08:50:40;102235.00;;;10.31;100.00
8627;BME280;4351;51.422;6.794;2023-05-02T08:53:11;102234.56;;;10.43;100.00
8627;BME280;4351;51.422;6.794;2023-05-02T08:56:13;102230.38;;;10.60;100.00
8627;BME280;4351;51.422;6.794;2023-05-02T08:58:41;102243.38;;;10.49;100.00
8627;BME280;4351;51.422;6.794;2023-05-02T09:01:09;102237.84;;;10.77;100.00
8627;BME280;4351;51.422;6.794;2023-05-02T09:03:39;102254.94;;;10.78;100.00
8627;BME280;4351;51.422;6.794;2023-05-02T09:06:13;102254.69;;;10.84;100.00
8627;BME280;4351;51.422;6.794;2023-05-02T09:08:43;102267.22;;;11.11;100.00
8627;BME280;4351;51.422;6.794;2023-05-02T09:11:11;102284.47;;;11.07;100.00
8627;BME280;4351;51.422;6.794;2023-05-02T09:13:40;102286.06;;;11.12;100.00
8627;BME280;4351;51.422;6.794;2023-05-02T09:16:09;102303.63;;;11.00;100.00
8627;BME280;4351;51.422;6.794;2023-05-02T09:18:39;102304.75;;;10.95;100.00
8627;BME280;4351;51.422;6.794;2023-05-02T09:21:08;102312.38;;;11.07;100.00
8627;BME280;4351;51.422;6.794;2023-05-02T09:23:40;102308.69;;;11.34;100.00
8627;BME280;4351;51.422;6.794;2023-05-02T09:26:13;102329.06;;;11.19;100.00
8627;BME280;4351;51.422;6.794;2023-05-02T09:28:43;102317.53;;;11.37;100.00
8627;BME280;4351;51.422;6.794;2023-05-02T09:31:13;102326.22;;;11.46;100.00
8627;BME280;4351;51.422;6.794;2023-05-02T09:33:48;102337.25;;;11.64;100.00
8627;BME280;4351;51.422;6.794;2023-05-02T09:36:19;102333.81;;;11.82;100.00
8627;BME280;4351;51.422;6.794;2023-05-02T09:38:49;102343.22;;;11.72;100.00
8627;BME280;4351;51.422;6.794;2023-05-02T09:41:17;102352.03;;;11.77;100.00
8627;BME280;4351;51.422;6.794;2023-05-02T09:43:54;102360.34;;;11.48;100.00
8627;BME280;4351;51.422;6.794;2023-05-02T09:46:22;102362.91;;;11.98;100.00
8627;BME280;4351;51.422;6.794;2023-05-02T09:48:52;102372.59;;;11.81;100.00
8627;BME280;4351;51.422;6.794;2023-05-02T09:51:23;102377.56;;;11.92;100.00
8627;BME280;4351;51.422;6.794;2023-05-02T09:53:53;102385.75;;;11.91;100.00
8627;BME280;4351;51.422;6.794;2023-05-02T09:56:21;102390.41;;;12.10;100.00
8627;BME280;4351;51.422;6.794;2023-05-02T09:58:56;102396.88;;;11.83;100.00
8627;BME280;4351;51.422;6.794;2023-05-02T10:01:39;102412.94;;;11.64;100.00
8627;BME280;4351;51.422;6.794;2023-05-02T10:04:11;102416.63;;;11.61;100.00
8627;BME280;4351;51.422;6.794;2023-05-02T10:06:42;102413.75;;;11.66;100.00
8627;BME280;4351;51.422;6.794;2023-05-02T10:09:13;102411.59;;;11.52;100.00
8627;BME280;4351;51.422;6.794;2023-05-02T10:11:51;102423.75;;;11.40;100.00
8627;BME280;4351;51.422;6.794;2023-05-02T10:14:20;102410.13;;;11.43;100.00
8627;BME280;4351;51.422;6.794;2023-05-02T10:16:54;102407.84;;;11.56;100.00
8627;BME280;4351;51.422;6.794;2023-05-02T10:19:28;102411.47;;;11.55;100.00
8627;BME280;4351;51.422;6.794;2023-05-02T10:21:57;102422.00;;;11.38;100.00
8627;BME280;4351;51.422;6.794;2023-05-02T10:24:27;102427.00;;;11.49;100.00
8627;BME280;4351;51.422;6.794;2023-05-02T10:26:55;102424.56;;;11.66;100.00
8627;BME280;4351;51.422;6.794;2023-05-02T10:29:24;102438.06;;;11.42;100.00
8627;BME280;4351;51.422;6.794;2023-05-02T10:31:55;102446.78;;;11.50;100.00
8627;BME280;4351;51.422;6.794;2023-05-02T10:34:26;102448.44;;;11.29;100.00
8627;BME280;4351;51.422;6.794;2023-05-02T10:36:54;102445.34;;;11.40;100.00
8627;BME280;4351;51.422;6.794;2023-05-02T10:39:28;102449.81;;;11.17;100.00
8627;BME280;4351;51.422;6.794;2023-05-02T10:42:00;102448.56;;;11.51;100.00
8627;BME280;4351;51.422;6.794;2023-05-02T10:44:32;102457.50;;;11.02;100.00
8627;BME280;4351;51.422;6.794;2023-05-02T10:47:00;102453.56;;;11.36;100.00
8627;BME280;4351;51.422;6.794;2023-05-02T10:49:28;102456.41;;;11.33;100.00
8627;BME280;4351;51.422;6.794;2023-05-02T10:51:56;102457.59;;;11.50;100.00
8627;BME280;4351;51.422;6.794;2023-05-02T10:54:24;102463.91;;;11.25;100.00
8627;BME280;4351;51.422;6.794;2023-05-02T10:57:06;102460.44;;;11.45;100.00
8627;BME280;4351;51.422;6.794;2023-05-02T10:59:36;102467.22;;;11.33;100.00
8627;BME280;4351;51.422;6.794;2023-05-02T11:02:04;102469.19;;;11.54;100.00
8627;BME280;4351;51.422;6.794;2023-05-02T11:05:01;102465.44;;;11.58;100.00
8627;BME280;4351;51.422;6.794;2023-05-02T11:07:31;102470.72;;;11.35;100.00
8627;BME280;4351;51.422;6.794;2023-05-02T11:10:24;102474.88;;;11.70;100.00
8627;BME280;4351;51.422;6.794;2023-05-02T11:12:55;102475.94;;;11.66;100.00
8627;BME280;4351;51.422;6.794;2023-05-02T11:15:54;102479.19;;;11.76;100.00
8627;BME280;4351;51.422;6.794;2023-05-02T11:18:25;102480.25;;;11.46;100.00
8627;BME280;4351;51.422;6.794;2023-05-02T11:21:25;102482.09;;;11.69;100.00
8627;BME280;4351;51.422;6.794;2023-05-02T11:27:37;102471.53;;;11.87;100.00
8627;BME280;4351;51.422;6.794;2023-05-02T11:30:09;102485.00;;;11.89;100.00
8627;BME280;4351;51.422;6.794;2023-05-02T11:33:16;102471.56;;;12.10;100.00
8627;BME280;4351;51.422;6.794;2023-05-02T11:35:46;102474.88;;;12.18;100.00
8627;BME280;4351;51.422;6.794;2023-05-02T11:38:19;102468.34;;;12.46;100.00
8627;BME280;4351;51.422;6.794;2023-05-02T11:40:49;102469.38;;;12.44;100.00
8627;BME280;4351;51.422;6.794;2023-05-02T11:43:19;102469.56;;;12.39;100.00
8627;BME280;4351;51.422;6.794;2023-05-02T11:45:49;102483.47;;;12.29;100.00
8627;BME280;4351;51.422;6.794;2023-05-02T11:48:19;102488.78;;;12.31;100.00
8627;BME280;4351;51.422;6.794;2023-05-02T11:50:49;102481.06;;;12.44;100.00
8627;BME280;4351;51.422;6.794;2023-05-02T11:53:20;102481.41;;;12.59;100.00
8627;BME280;4351;51.422;6.794;2023-05-02T11:55:50;102496.56;;;12.63;100.00
8627;BME280;4351;51.422;6.794;2023-05-02T11:58:21;102497.91;;;12.52;100.00
8627;BME280;4351;51.422;6.794;2023-05-02T12:00:51;102487.09;;;12.73;100.00
8627;BME280;4351;51.422;6.794;2023-05-02T12:03:21;102492.06;;;12.84;100.00
8627;BME280;4351;51.422;6.794;2023-05-02T12:05:49;102498.03;;;12.93;100.00
8627;BME280;4351;51.422;6.794;2023-05-02T12:08:19;102501.84;;;12.66;100.00
8627;BME280;4351;51.422;6.794;2023-05-02T12:10:48;102488.28;;;12.88;100.00
8627;BME280;4351;51.422;6.794;2023-05-02T12:13:18;102490.94;;;13.11;100.00
8627;BME280;4351;51.422;6.794;2023-05-02T12:15:47;102494.47;;;13.13;100.00
8627;BME280;4351;51.422;6.794;2023-05-02T12:18:17;102509.75;;;12.71;100.00
8627;BME280;4351;51.422;6.794;2023-05-02T12:20:48;102503.59;;;12.67;100.00
8627;BME280;4351;51.422;6.794;2023-05-02T12:23:16;102513.19;;;12.53;100.00
8627;BME280;4351;51.422;6.794;2023-05-02T12:25:45;102511.09;;;12.38;100.00
8627;BME280;4351;51.422;6.794;2023-05-02T12:28:15;102515.81;;;12.78;100.00
8627;BME280;4351;51.422;6.794;2023-05-02T12:30:46;102508.94;;;12.69;100.00
8627;BME280;4351;51.422;6.794;2023-05-02T12:33:16;102521.94;;;12.60;100.00
8627;BME280;4351;51.422;6.794;2023-05-02T12:35:44;102520.59;;;12.48;100.00
8627;BME280;4351;51.422;6.794;2023-05-02T12:38:14;102524.72;;;12.59;100.00
8627;BME280;4351;51.422;6.794;2023-05-02T12:40:47;102527.28;;;12.62;100.00
8627;BME280;4351;51.422;6.794;2023-05-02T12:43:16;102531.88;;;12.60;100.00
8627;BME280;4351;51.422;6.794;2023-05-02T12:45:43;102537.72;;;12.49;100.00
8627;BME280;4351;51.422;6.794;2023-05-02T12:48:19;102533.09;;;12.52;100.00
8627;BME280;4351;51.422;6.794;2023-05-02T12:50:48;102538.84;;;12.43;100.00
8627;BME280;4351;51.422;6.794;2023-05-02T12:53:16;102541.63;;;12.64;100.00
8627;BME280;4351;51.422;6.794;2023-05-02T12:55:44;102541.16;;;12.76;100.00
8627;BME280;4351;51.422;6.794;2023-05-02T12:58:12;102544.09;;;12.70;100.00
8627;BME280;4351;51.422;6.794;2023-05-02T13:00:41;102540.81;;;12.62;100.00
8627;BME280;4351;51.422;6.794;2023-05-02T13:03:12;102550.34;;;12.72;100.00
8627;BME280;4351;51.422;6.794;2023-05-02T13:05:42;102539.19;;;12.80;100.00
8627;BME280;4351;51.422;6.794;2023-05-02T13:08:10;102538.25;;;12.59;100.00
8627;BME280;4351;51.422;6.794;2023-05-02T13:10:38;102537.31;;;13.03;100.00
8627;BME280;4351;51.422;6.794;2023-05-02T13:13:06;102539.09;;;12.82;100.00
8627;BME280;4351;51.422;6.794;2023-05-02T13:15:33;102539.81;;;12.87;100.00
8627;BME280;4351;51.422;6.794;2023-05-02T13:18:01;102538.19;;;13.04;100.00
8627;BME280;4351;51.422;6.794;2023-05-02T13:20:29;102526.34;;;13.06;100.00
8627;BME280;4351;51.422;6.794;2023-05-02T13:22:59;102519.38;;;13.21;100.00